createdAt,value
2017-08-17T00:00:41.137Z,10.20
2017-08-17T00:03:08.585Z,9.97
2017-08-17T00:05:36.223Z,11.83
2017-08-17T00:08:03.713Z,10.23
2017-08-17T00:10:31.303Z,10.53
2017-08-17T00:12:58.741Z,11.77
2017-08-17T00:15:26.485Z,11.83
2017-08-17T00:17:53.941Z,10.40
2017-08-17T00:20:21.577Z,10.57
2017-08-17T00:22:49.158Z,8.60
2017-08-17T00:25:16.621Z,9.27
2017-08-17T00:27:44.368Z,10.63
2017-08-17T00:30:11.791Z,9.33
2017-08-17T00:32:39.292Z,10.10
2017-08-17T00:35:07.044Z,8.80
2017-08-17T00:37:34.512Z,10.73
2017-08-17T00:40:01.929Z,9.13
2017-08-17T00:42:29.415Z,13.03
2017-08-17T00:44:56.844Z,11.13
2017-08-17T00:47:24.333Z,9.80
2017-08-17T00:49:51.785Z,9.57
2017-08-17T00:52:19.212Z,9.77
2017-08-17T00:54:46.634Z,10.47
2017-08-17T00:57:14.155Z,12.53
2017-08-17T00:59:41.581Z,9.43
2017-08-17T01:02:09.013Z,9.60
2017-08-17T01:04:36.524Z,10.73
2017-08-17T01:07:03.980Z,9.27
2017-08-17T01:09:31.409Z,10.53
2017-08-17T01:11:58.893Z,10.83
2017-08-17T01:14:26.357Z,9.43
2017-08-17T01:16:53.833Z,11.87
2017-08-17T01:19:21.269Z,11.70
2017-08-17T01:21:48.720Z,10.83
2017-08-17T01:24:16.172Z,12.00
2017-08-17T01:26:43.629Z,12.53
2017-08-17T01:29:11.087Z,13.67
2017-08-17T01:31:38.546Z,13.40
2017-08-17T01:34:06.001Z,13.13
2017-08-17T01:36:33.437Z,13.07
2017-08-17T01:39:00.912Z,14.37
2017-08-17T01:41:28.373Z,11.70
2017-08-17T01:43:55.824Z,13.33
2017-08-17T01:46:23.261Z,12.40
2017-08-17T01:48:50.692Z,13.10
2017-08-17T01:51:18.193Z,13.70
2017-08-17T01:53:45.648Z,15.50
2017-08-17T01:56:13.113Z,13.80
2017-08-17T01:58:40.560Z,13.80
2017-08-17T02:01:08.022Z,13.57
2017-08-17T02:03:35.489Z,15.10
2017-08-17T02:06:02.932Z,13.40
2017-08-17T02:08:30.384Z,13.37
2017-08-17T02:10:57.824Z,13.80
2017-08-17T02:13:25.299Z,12.73
2017-08-17T02:15:52.762Z,12.20
2017-08-17T02:18:20.217Z,12.83
2017-08-17T02:20:47.868Z,13.17
2017-08-17T02:23:15.338Z,12.57
2017-08-17T02:25:42.814Z,13.10
2017-08-17T02:28:10.344Z,11.60
2017-08-17T02:30:37.807Z,11.70
2017-08-17T02:33:05.266Z,11.90
2017-08-17T02:35:32.721Z,14.77
2017-08-17T02:38:00.352Z,11.87
2017-08-17T02:40:27.938Z,12.23
2017-08-17T02:42:55.372Z,12.03
2017-08-17T02:45:22.807Z,12.80
2017-08-17T02:47:50.228Z,13.90
2017-08-17T02:50:17.664Z,15.10
2017-08-17T02:52:45.220Z,13.10
2017-08-17T02:55:12.843Z,12.37
2017-08-17T02:57:40.314Z,15.20
2017-08-17T03:00:07.795Z,12.17
2017-08-17T03:02:35.255Z,14.37
2017-08-17T03:05:02.708Z,12.50
2017-08-17T03:07:30.173Z,14.47
2017-08-17T03:09:57.628Z,13.53
2017-08-17T03:12:25.092Z,11.57
2017-08-17T03:14:52.534Z,11.63
2017-08-17T03:17:20.078Z,14.40
2017-08-17T03:19:47.541Z,14.60
2017-08-17T03:22:15.005Z,11.50
2017-08-17T03:24:43.389Z,12.73
2017-08-17T03:27:10.834Z,12.93
2017-08-17T03:29:38.473Z,14.00
2017-08-17T03:32:05.937Z,15.10
2017-08-17T03:34:33.360Z,12.60
2017-08-17T03:37:01.553Z,16.00
2017-08-17T03:39:28.993Z,13.57
2017-08-17T03:41:56.418Z,14.80
2017-08-17T03:44:23.857Z,12.60
2017-08-17T03:46:51.293Z,13.90
2017-08-17T03:49:18.719Z,11.97
2017-08-17T03:51:46.316Z,12.70
2017-08-17T03:54:13.785Z,14.13
2017-08-17T03:56:41.412Z,11.93
2017-08-17T03:59:08.909Z,12.30
2017-08-17T04:01:36.338Z,12.03
2017-08-17T04:04:03.910Z,13.60
2017-08-17T04:06:31.664Z,13.13
2017-08-17T04:08:59.112Z,26.53
2017-08-17T04:11:26.537Z,11.40
2017-08-17T04:13:54.040Z,10.93
2017-08-17T04:16:21.504Z,11.63
2017-08-17T04:18:48.974Z,10.50
2017-08-17T04:21:16.401Z,10.90
2017-08-17T04:23:43.829Z,10.97
2017-08-17T04:26:11.312Z,11.20
2017-08-17T04:28:38.741Z,10.10
2017-08-17T04:31:06.184Z,13.93
2017-08-17T04:33:33.615Z,10.27
2017-08-17T04:36:01.096Z,10.07
2017-08-17T04:38:28.508Z,10.80
2017-08-17T04:40:55.946Z,10.87
2017-08-17T04:43:23.379Z,10.87
2017-08-17T04:45:50.853Z,9.67
2017-08-17T04:48:18.281Z,10.63
2017-08-17T04:50:46.487Z,10.53
2017-08-17T04:53:13.913Z,10.17
2017-08-17T04:55:41.353Z,13.37
2017-08-17T04:58:26.287Z,10.80
2017-08-17T05:00:53.759Z,12.83
2017-08-17T05:03:21.177Z,10.50
2017-08-17T05:05:48.605Z,10.20
2017-08-17T05:08:16.042Z,11.83
2017-08-17T05:10:44.272Z,11.63
2017-08-17T05:13:11.728Z,9.50
2017-08-17T05:15:39.179Z,12.77
2017-08-17T05:18:06.637Z,11.20
2017-08-17T05:20:34.094Z,10.40
2017-08-17T05:23:01.525Z,9.57
2017-08-17T05:25:29.004Z,12.07
2017-08-17T05:27:56.453Z,11.63
2017-08-17T05:30:23.920Z,12.63
2017-08-17T05:32:51.369Z,11.10
2017-08-17T05:35:18.840Z,11.33
2017-08-17T05:37:46.272Z,11.43
2017-08-17T05:40:13.692Z,10.80
2017-08-17T05:42:41.112Z,10.07
2017-08-17T05:45:08.659Z,9.93
2017-08-17T05:47:36.147Z,10.43
2017-08-17T05:50:03.881Z,15.33
2017-08-17T05:52:31.332Z,9.30
2017-08-17T05:54:58.756Z,9.77
2017-08-17T05:57:26.185Z,11.93
2017-08-17T05:59:53.712Z,9.13
2017-08-17T06:02:21.338Z,9.87
2017-08-17T06:04:49.841Z,9.83
2017-08-17T06:07:17.251Z,9.23
2017-08-17T06:09:44.687Z,8.83
2017-08-17T06:12:12.199Z,11.80
2017-08-17T06:14:39.674Z,10.30
2017-08-17T06:17:07.126Z,11.50
2017-08-17T06:19:34.583Z,13.17
2017-08-17T06:22:02.350Z,10.90
2017-08-17T06:24:29.802Z,11.33
2017-08-17T06:26:57.228Z,12.63
2017-08-17T06:29:24.664Z,12.00
2017-08-17T06:31:52.099Z,13.90
2017-08-17T06:34:19.633Z,12.77
2017-08-17T06:36:47.089Z,14.50
2017-08-17T06:39:14.529Z,14.50
2017-08-17T06:41:42.000Z,14.53
2017-08-17T06:44:09.460Z,15.07
2017-08-17T06:46:36.909Z,14.67
2017-08-17T06:49:04.672Z,15.40
2017-08-17T06:51:32.096Z,15.90
2017-08-17T06:53:59.580Z,12.70
2017-08-17T06:56:27.036Z,13.90
2017-08-17T06:58:54.474Z,14.40
2017-08-17T07:01:21.904Z,15.70
2017-08-17T07:03:49.400Z,13.87
2017-08-17T07:06:16.838Z,15.00
2017-08-17T07:08:44.316Z,14.13
2017-08-17T07:11:11.774Z,14.83
2017-08-17T07:13:39.215Z,15.07
2017-08-17T07:16:06.665Z,16.80
2017-08-17T07:18:34.099Z,15.67
2017-08-17T07:21:01.596Z,15.43
2017-08-17T07:23:29.077Z,16.47
2017-08-17T07:25:56.816Z,15.73
2017-08-17T07:28:24.261Z,15.43
2017-08-17T07:30:51.737Z,16.73
2017-08-17T07:33:19.181Z,14.37
2017-08-17T07:35:46.618Z,14.10
2017-08-17T07:38:14.108Z,14.90
2017-08-17T07:40:41.569Z,13.73
2017-08-17T07:43:09.325Z,14.47
2017-08-17T07:45:36.840Z,15.93
2017-08-17T07:48:04.549Z,12.97
2017-08-17T07:50:32.018Z,18.47
2017-08-17T07:52:59.458Z,14.50
2017-08-17T07:55:26.885Z,16.20
2017-08-17T07:57:54.310Z,13.63
2017-08-17T08:00:21.748Z,11.33
2017-08-17T08:02:49.281Z,11.40
2017-08-17T08:05:16.771Z,13.10
2017-08-17T08:07:44.506Z,13.93
2017-08-17T08:10:12.150Z,12.17
2017-08-17T08:12:39.617Z,13.43
2017-08-17T08:15:07.053Z,10.43
2017-08-17T08:17:34.485Z,12.07
2017-08-17T08:20:03.013Z,12.73
2017-08-17T08:22:30.438Z,11.63
2017-08-17T08:24:57.938Z,12.40
2017-08-17T08:27:25.690Z,12.40
2017-08-17T08:29:53.454Z,12.27
2017-08-17T08:32:21.217Z,12.67
2017-08-17T08:34:48.664Z,11.97
2017-08-17T08:37:16.107Z,13.37
2017-08-17T08:39:43.536Z,12.00
2017-08-17T08:42:10.973Z,13.07
2017-08-17T08:44:38.405Z,15.63
2017-08-17T08:47:05.856Z,12.10
2017-08-17T08:49:33.308Z,13.73
2017-08-17T08:52:00.865Z,12.07
2017-08-17T08:54:28.498Z,12.53
2017-08-17T08:56:56.073Z,11.80
2017-08-17T08:59:23.509Z,13.00
2017-08-17T09:01:50.993Z,15.93
2017-08-17T09:04:18.744Z,13.87
2017-08-17T09:06:46.209Z,12.47
2017-08-17T09:09:13.632Z,14.13
2017-08-17T09:11:41.083Z,11.87
2017-08-17T09:14:08.581Z,11.80
2017-08-17T09:16:36.029Z,14.70
2017-08-17T09:19:03.456Z,13.53
2017-08-17T09:21:30.944Z,14.30
2017-08-17T09:23:58.369Z,12.10
2017-08-17T09:26:25.816Z,11.80
2017-08-17T09:28:53.250Z,13.37
2017-08-17T09:31:20.756Z,12.50
2017-08-17T09:33:48.228Z,13.57
2017-08-17T09:36:15.657Z,13.17
2017-08-17T09:38:43.096Z,13.93
2017-08-17T09:41:10.524Z,12.93
2017-08-17T09:43:38.052Z,13.40
2017-08-17T09:46:05.500Z,12.93
2017-08-17T09:48:32.932Z,11.47
2017-08-17T09:51:00.369Z,12.47
2017-08-17T09:53:27.892Z,10.10
2017-08-17T09:55:55.344Z,10.27
2017-08-17T09:58:23.101Z,10.07
2017-08-17T10:00:50.528Z,12.00
2017-08-17T10:03:18.028Z,9.80
2017-08-17T10:05:45.480Z,10.97
2017-08-17T10:08:12.913Z,13.13
2017-08-17T10:10:40.377Z,10.10
2017-08-17T10:13:07.837Z,10.00
2017-08-17T10:15:35.481Z,13.93
2017-08-17T10:18:02.952Z,9.37
2017-08-17T10:20:30.428Z,9.10
2017-08-17T10:22:57.878Z,8.87
2017-08-17T10:25:25.340Z,9.63
2017-08-17T10:27:52.881Z,9.40
2017-08-17T10:30:20.337Z,8.07
2017-08-17T10:32:47.792Z,9.37
2017-08-17T10:35:15.562Z,8.30
2017-08-17T10:37:42.986Z,7.83
2017-08-17T10:40:10.469Z,8.77
2017-08-17T10:42:37.929Z,12.17
2017-08-17T10:45:05.352Z,9.33
2017-08-17T10:47:32.789Z,9.47
2017-08-17T10:50:00.213Z,9.20
2017-08-17T10:52:27.668Z,9.33
2017-08-17T10:54:55.107Z,8.07
2017-08-17T10:57:22.580Z,8.57
2017-08-17T10:59:50.027Z,8.53
2017-08-17T11:02:17.492Z,9.60
2017-08-17T11:04:44.941Z,8.80
2017-08-17T11:07:12.428Z,8.93
2017-08-17T11:09:39.849Z,8.13
2017-08-17T11:12:07.397Z,6.90
2017-08-17T11:14:34.840Z,7.93
2017-08-17T11:17:02.327Z,8.37
2017-08-17T11:19:29.786Z,7.47
2017-08-17T11:21:57.534Z,8.50
2017-08-17T11:24:24.989Z,8.13
2017-08-17T11:26:52.444Z,9.70
2017-08-17T11:29:19.880Z,8.53
2017-08-17T11:31:47.389Z,7.73
2017-08-17T11:34:14.804Z,6.97
2017-08-17T11:36:42.229Z,7.47
2017-08-17T11:39:09.741Z,6.67
2017-08-17T11:41:37.175Z,7.50
2017-08-17T11:44:04.605Z,7.60
2017-08-17T11:46:32.032Z,7.40
2017-08-17T11:48:59.484Z,7.50
2017-08-17T11:51:26.894Z,6.97
2017-08-17T11:53:54.465Z,8.07
2017-08-17T11:56:21.924Z,6.53
2017-08-17T11:58:49.348Z,6.03
2017-08-17T12:01:16.787Z,10.43
2017-08-17T12:03:44.205Z,5.80
2017-08-17T12:06:11.665Z,6.60
2017-08-17T12:08:39.210Z,7.00
2017-08-17T12:11:06.665Z,6.57
2017-08-17T12:13:34.422Z,6.03
2017-08-17T12:16:01.884Z,5.73
2017-08-17T12:18:29.356Z,5.13
2017-08-17T12:20:56.806Z,4.93
2017-08-17T12:23:24.244Z,4.70
2017-08-17T12:25:51.726Z,6.23
2017-08-17T12:28:19.337Z,5.30
2017-08-17T12:30:46.838Z,4.80
2017-08-17T12:33:14.293Z,4.40
2017-08-17T12:35:41.725Z,5.43
2017-08-17T12:38:09.325Z,4.97
2017-08-17T12:40:37.048Z,4.63
2017-08-17T12:43:04.511Z,4.40
2017-08-17T12:45:31.948Z,7.40
2017-08-17T12:47:59.432Z,4.73
2017-08-17T12:50:27.056Z,7.90
2017-08-17T12:52:54.556Z,4.17
2017-08-17T12:55:22.160Z,5.13
2017-08-17T12:57:49.611Z,5.20
2017-08-17T13:00:17.067Z,4.60
2017-08-17T13:02:45.297Z,4.80
2017-08-17T13:05:12.845Z,4.00
2017-08-17T13:07:40.306Z,3.97
2017-08-17T13:10:07.767Z,4.23
2017-08-17T13:12:35.183Z,3.97
2017-08-17T13:15:02.688Z,3.20
2017-08-17T13:17:30.099Z,4.17
2017-08-17T13:19:57.588Z,5.60
2017-08-17T13:22:25.032Z,3.90
2017-08-17T13:24:52.468Z,5.20
2017-08-17T13:27:19.880Z,4.40
2017-08-17T13:29:47.405Z,4.07
2017-08-17T13:32:14.831Z,3.50
2017-08-17T13:34:42.247Z,3.90
2017-08-17T13:37:09.750Z,3.97
2017-08-17T13:39:37.160Z,4.10
2017-08-17T13:42:04.702Z,3.90
2017-08-17T13:44:32.143Z,3.73
2017-08-17T13:46:59.559Z,5.20
2017-08-17T13:49:27.065Z,3.97
2017-08-17T13:51:54.529Z,4.43
2017-08-17T13:54:22.271Z,3.17
2017-08-17T13:56:49.710Z,10.20
2017-08-17T13:59:17.136Z,5.20
2017-08-17T14:01:44.675Z,4.80
2017-08-17T14:04:12.282Z,6.13
2017-08-17T14:06:39.868Z,5.63
2017-08-17T14:09:07.561Z,5.07
2017-08-17T14:11:35.100Z,6.47
2017-08-17T14:14:02.545Z,5.27
2017-08-17T14:16:30.164Z,4.20
2017-08-17T14:18:57.768Z,5.93
2017-08-17T14:21:25.193Z,5.70
2017-08-17T14:23:52.627Z,3.90
2017-08-17T14:26:20.133Z,4.90
2017-08-17T14:28:47.595Z,5.40
2017-08-17T14:31:15.059Z,4.37
2017-08-17T14:33:42.534Z,5.20
2017-08-17T14:36:09.960Z,5.07
2017-08-17T14:38:37.604Z,4.43
2017-08-17T14:41:05.085Z,2.70
2017-08-17T14:43:32.622Z,4.93
2017-08-17T14:46:00.094Z,5.47
2017-08-17T14:48:27.514Z,4.67
2017-08-17T14:50:54.936Z,6.57
2017-08-17T14:53:22.464Z,3.80
2017-08-17T14:55:50.084Z,6.03
2017-08-17T14:58:17.560Z,3.40
2017-08-17T15:00:45.000Z,2.83
2017-08-17T15:03:12.584Z,6.40
2017-08-17T15:05:40.024Z,6.20
2017-08-17T15:08:07.505Z,4.03
2017-08-17T15:10:34.932Z,5.17
2017-08-17T15:13:02.349Z,3.70
2017-08-17T15:15:29.881Z,6.57
2017-08-17T15:17:57.331Z,4.00
2017-08-17T15:20:24.761Z,3.97
2017-08-17T15:22:52.182Z,3.00
2017-08-17T15:25:19.604Z,4.63
2017-08-17T15:27:47.180Z,4.27
2017-08-17T15:30:14.607Z,3.97
2017-08-17T15:32:42.706Z,3.60
2017-08-17T15:35:10.351Z,4.53
2017-08-17T15:37:37.864Z,3.70
2017-08-17T15:40:05.349Z,4.13
2017-08-17T15:42:32.813Z,4.43
2017-08-17T15:45:00.272Z,9.00
2017-08-17T15:47:27.721Z,2.80
2017-08-17T15:49:55.137Z,4.00
2017-08-17T15:52:22.568Z,2.90
2017-08-17T15:54:49.991Z,4.00
2017-08-17T15:57:17.546Z,4.60
2017-08-17T15:59:44.998Z,4.53
2017-08-17T16:02:12.433Z,4.83
2017-08-17T16:04:39.847Z,3.67
2017-08-17T16:07:07.298Z,3.40
2017-08-17T16:09:34.820Z,2.50
2017-08-17T16:12:02.252Z,2.27
2017-08-17T16:14:29.679Z,2.57
2017-08-17T16:16:57.207Z,2.40
2017-08-17T16:19:24.665Z,2.67
2017-08-17T16:21:52.107Z,4.27
2017-08-17T16:24:19.536Z,3.00
2017-08-17T16:26:46.961Z,4.50
2017-08-17T16:29:14.484Z,4.07
2017-08-17T16:31:41.934Z,2.77
2017-08-17T16:34:09.372Z,3.07
2017-08-17T16:36:36.792Z,3.67
2017-08-17T16:39:04.221Z,2.83
2017-08-17T16:41:31.649Z,3.90
2017-08-17T16:43:59.072Z,2.20
2017-08-17T16:46:26.497Z,4.37
2017-08-17T16:48:54.042Z,3.90
2017-08-17T16:51:21.581Z,2.33
2017-08-17T16:53:49.038Z,5.97
2017-08-17T16:56:16.459Z,3.30
2017-08-17T16:58:43.933Z,4.20
2017-08-17T17:01:11.337Z,2.93
2017-08-17T17:03:38.760Z,3.17
2017-08-17T17:06:06.192Z,4.27
2017-08-17T17:08:33.622Z,2.37
2017-08-17T17:11:01.825Z,2.70
2017-08-17T17:13:29.296Z,2.80
2017-08-17T17:15:56.720Z,3.80
2017-08-17T17:18:24.214Z,2.93
2017-08-17T17:20:51.677Z,4.60
2017-08-17T17:23:19.094Z,2.30
2017-08-17T17:25:46.521Z,6.63
2017-08-17T17:28:13.944Z,3.17
2017-08-17T17:30:41.372Z,2.83
2017-08-17T17:33:08.864Z,2.90
2017-08-17T17:35:36.281Z,5.70
2017-08-17T17:38:03.786Z,2.37
2017-08-17T17:40:31.232Z,3.03
2017-08-17T17:42:58.790Z,5.33
2017-08-17T17:45:26.224Z,5.03
2017-08-17T17:47:53.648Z,3.13
2017-08-17T17:50:21.082Z,3.83
2017-08-17T17:52:48.504Z,4.00
2017-08-17T17:55:16.061Z,3.57
2017-08-17T17:57:43.521Z,6.10
2017-08-17T18:00:11.009Z,5.10
2017-08-17T18:02:38.445Z,3.40
2017-08-17T18:05:06.065Z,3.40
2017-08-17T18:07:33.657Z,6.00
2017-08-17T18:10:01.276Z,5.27
2017-08-17T18:12:28.740Z,4.33
2017-08-17T18:14:56.324Z,8.13
2017-08-17T18:17:23.772Z,4.07
2017-08-17T18:19:51.233Z,4.63
2017-08-17T18:22:19.001Z,5.03
2017-08-17T18:24:46.419Z,5.43
2017-08-17T18:27:13.913Z,4.20
2017-08-17T18:29:41.397Z,4.23
2017-08-17T18:32:09.143Z,7.00
2017-08-17T18:34:36.589Z,4.47
2017-08-17T18:37:04.043Z,4.90
2017-08-17T18:39:31.464Z,6.03
2017-08-17T18:41:58.961Z,3.23
2017-08-17T18:44:26.410Z,3.73
2017-08-17T18:46:53.840Z,4.40
2017-08-17T18:49:21.389Z,4.17
2017-08-17T18:51:49.087Z,6.13
2017-08-17T18:54:16.861Z,4.63
2017-08-17T18:56:44.610Z,4.33
2017-08-17T18:59:12.042Z,4.80
2017-08-17T19:01:39.472Z,3.73
2017-08-17T19:04:06.910Z,3.73
2017-08-17T19:06:34.340Z,4.50
2017-08-17T19:09:01.887Z,3.13
2017-08-17T19:11:29.312Z,3.47
2017-08-17T19:13:56.748Z,4.40
2017-08-17T19:16:24.256Z,5.47
2017-08-17T19:18:51.727Z,5.40
2017-08-17T19:21:19.175Z,6.00
2017-08-17T19:23:46.631Z,4.30
2017-08-17T19:26:14.079Z,5.00
2017-08-17T19:28:41.528Z,3.37
2017-08-17T19:31:08.952Z,3.87
2017-08-17T19:33:36.369Z,3.10
2017-08-17T19:36:03.816Z,2.80
2017-08-17T19:38:31.273Z,3.00
2017-08-17T19:40:58.709Z,3.43
2017-08-17T19:43:26.285Z,3.00
2017-08-17T19:45:53.747Z,3.83
2017-08-17T19:48:21.503Z,4.40
2017-08-17T19:50:48.937Z,4.40
2017-08-17T19:53:16.354Z,5.20
2017-08-17T19:55:43.874Z,4.30
2017-08-17T19:58:11.493Z,4.70
2017-08-17T20:00:38.986Z,3.83
2017-08-17T20:03:06.743Z,3.07
2017-08-17T20:05:34.313Z,5.27
2017-08-17T20:08:01.768Z,4.27
2017-08-17T20:10:29.529Z,3.33
2017-08-17T20:12:56.992Z,4.67
2017-08-17T20:15:24.450Z,3.43
2017-08-17T20:17:51.887Z,3.47
2017-08-17T20:20:19.303Z,4.87
2017-08-17T20:22:46.735Z,6.80
2017-08-17T20:25:14.163Z,3.60
2017-08-17T20:27:41.729Z,5.73
2017-08-17T20:30:09.492Z,6.90
2017-08-17T20:32:37.141Z,3.37
2017-08-17T20:35:04.700Z,4.40
2017-08-17T20:37:32.148Z,4.10
2017-08-17T20:39:59.565Z,4.13
2017-08-17T20:42:27.064Z,5.47
2017-08-17T20:44:54.481Z,5.60
2017-08-17T20:47:21.916Z,3.33
2017-08-17T20:49:49.343Z,6.20
2017-08-17T20:52:16.892Z,5.50
2017-08-17T20:54:44.356Z,5.20
2017-08-17T20:57:11.784Z,2.83
2017-08-17T20:59:39.211Z,4.43
2017-08-17T21:02:06.644Z,3.63
2017-08-17T21:04:34.172Z,6.30
2017-08-17T21:07:01.596Z,3.07
2017-08-17T21:09:29.020Z,3.87
2017-08-17T21:11:56.444Z,4.33
2017-08-17T21:14:23.884Z,7.03
2017-08-17T21:16:51.388Z,8.47
2017-08-17T21:19:18.817Z,4.87
2017-08-17T21:21:46.285Z,3.60
2017-08-17T21:24:13.749Z,4.50
2017-08-17T21:26:41.190Z,6.23
2017-08-17T21:29:08.742Z,5.13
2017-08-17T21:31:36.202Z,4.83
2017-08-17T21:34:03.647Z,3.80
2017-08-17T21:36:31.080Z,3.40
2017-08-17T21:38:58.520Z,4.77
2017-08-17T21:41:26.024Z,3.57
2017-08-17T21:43:53.657Z,3.73
2017-08-17T21:46:21.081Z,3.77
2017-08-17T21:48:49.318Z,7.77
2017-08-17T21:51:17.079Z,5.77
2017-08-17T21:53:44.493Z,4.10
2017-08-17T21:56:11.930Z,4.90
2017-08-17T21:58:39.354Z,3.93
2017-08-17T22:01:06.809Z,3.70
2017-08-17T22:03:34.367Z,4.73
2017-08-17T22:06:01.816Z,3.10
2017-08-17T22:08:29.579Z,3.60
2017-08-17T22:10:57.006Z,4.53
2017-08-17T22:13:24.426Z,5.33
2017-08-17T22:15:51.962Z,3.93
2017-08-17T22:18:19.579Z,3.40
2017-08-17T22:20:47.166Z,8.70
2017-08-17T22:23:14.624Z,4.00
2017-08-17T22:25:42.079Z,5.53
2017-08-17T22:28:09.712Z,5.43
2017-08-17T22:30:37.285Z,6.87
2017-08-17T22:33:04.740Z,4.53
2017-08-17T22:35:32.160Z,4.87
2017-08-17T22:37:59.668Z,5.40
2017-08-17T22:40:27.091Z,4.80
2017-08-17T22:42:54.579Z,3.80
2017-08-17T22:45:21.996Z,5.10
2017-08-17T22:47:49.432Z,4.27
2017-08-17T22:50:16.944Z,3.80
2017-08-17T22:52:44.377Z,3.30
2017-08-17T22:55:11.805Z,3.60
2017-08-17T22:57:39.221Z,4.30
2017-08-17T23:00:06.770Z,3.30
2017-08-17T23:02:34.189Z,3.80
2017-08-17T23:05:01.680Z,4.00
2017-08-17T23:07:29.096Z,2.90
2017-08-17T23:09:56.523Z,4.10
2017-08-17T23:12:24.044Z,6.80
2017-08-17T23:14:51.508Z,4.10
2017-08-17T23:17:18.928Z,3.93
2017-08-17T23:19:46.357Z,3.43
2017-08-17T23:22:13.873Z,5.47
2017-08-17T23:24:41.336Z,6.60
2017-08-17T23:27:08.786Z,4.20
2017-08-17T23:29:36.240Z,3.57
2017-08-17T23:32:03.694Z,3.80
2017-08-17T23:34:31.129Z,3.90
2017-08-17T23:36:58.608Z,4.07
2017-08-17T23:39:26.067Z,4.20
2017-08-17T23:41:53.507Z,3.33
2017-08-17T23:44:20.942Z,4.20
2017-08-17T23:46:48.373Z,3.83
2017-08-17T23:49:15.900Z,7.90
2017-08-17T23:51:43.357Z,5.13
2017-08-17T23:54:11.116Z,4.43
2017-08-17T23:56:38.570Z,5.10
2017-08-17T23:59:05.997Z,11.07
